Yellowstone Natl Park, WY (82190)

12:59 AM MST die 08o December, anno 2016 (GMT -0700)
Yellowstone | | Change Station
Active Advisory: Winter Storm Watch

Elev 6644 ft 44.69 °N, 111.12 °W | Updated 9 minutes ago

Partialiter Nubila
Partialiter Nubila
-9 °F
Feels Like -9 °F
N
0
Ventus Variabilis Ventus from Aquilo

Hodie
High -- | Low -- °F
--% Chance of Precip.
Yesterday
High -- | Low -- °F
Precip. -- in
Pressio 30.24 in
Visibilitas 9.0 milia passuum
Clouds Aequaliter Nubila 3300 ft
Frigus in quo Ros apparet -13 °F
Umor 84%
Rainfall 0.00 in
Snow Depth Not available.
7:46 AM 4:42 PM
First Quarter, 61% visible
METAR KWYS 080750Z AUTO 00000KT 9SM OVC033 M23/M25 A3024 RMK AO2
Pressio 30.24 in
Visibilitas 9.0 milia passuum
Clouds Aequaliter Nubila 3300 ft
Frigus in quo Ros apparet -13 °F
Umor 84%
Rainfall 0.00 in
Snow Depth Not available.
7:46 AM 4:42 PM
First Quarter, 61% visible
METAR KWYS 080750Z AUTO 00000KT 9SM OVC033 M23/M25 A3024 RMK AO2

10-Day Weather Forecast

Almanac

Astronomy

Dec. 08, 2016 Rise Set
Actual Time
Civil Twilight
Nautical Twilight
Astronomical Twilight
Moon
Length Of Visible Light
Length of Day
Tomorrow will be .
, % of the Moon is Illuminated

Today's Extremes

State Highs State Lows

Community

WunderPhotos

Upload Photos

1,956,259 photos uploaded!

WunderBlog® & News

Nearby

Air Quality

  Air Quality AQ Index Pollutant
Not available.

Snow Depth

Station Depth Elevation

Earthquake Activity

City Distance Mag. Time & Date
Minimum magnitude displayed is 2.5.

Coastal Water Temperatures

Locus Calor

Stations

Nearby Weather Stations

Station Location Temp Frigus Venti Frigus in quo Ros apparet Umor Ventus Precip. Elev Renovata Type
                   

Watches & Warnings

Winter Storm Watch
Issued: 11:43 AM MST Dec. 7, 2016 – National Weather Service

... Winter Storm Watch remains in effect from Thursday afternoon
through Saturday morning...

* timing... snow will likely begin by late Thursday afternoon.
Snowfall will become heavy at times Thursday night and will
likely continue through Saturday morning. There will likely be
one final burst of snowfall around mid day Saturday. Snowfall
will decrease to snow showers Saturday afternoon.

* Total snowfall... 3 to 6 inches in the northern portion of the
park around Mammoth... 6 to 10 inches in the central portion of
the park and up to 15 to 25 inches possible over the southwest
portion of the park.

* Wind and visibility... west winds of 15 to 30 mph with gusts to
40 mph will result in blowing and drifting snow along with
lowered visibility down to one quarter of a mile.

* Impacts... roads may become slick and snow packed with limited
visibility at times. People planning outdoor activities should
be prepared for adverse winter weather conditions and take the
proper precautions.

Precautionary/preparedness actions...

A Winter Storm Watch means there is a potential for significant
snow and/or blowing snow that may impact travel. Continue to
monitor the latest forecasts.